sensor_id;sensor_type;location;lat;lon;timestamp;P1;durP1;ratioP1;P2;durP2;ratioP2
46897;SDS011;32646;50.958;6.258;2023-09-19T00:01:25;5.30;;;1.50;;
46897;SDS011;32646;50.958;6.258;2023-09-19T00:03:53;5.57;;;1.40;;
46897;SDS011;32646;50.958;6.258;2023-09-19T00:06:20;9.25;;;1.52;;
46897;SDS011;32646;50.958;6.258;2023-09-19T00:08:46;4.82;;;1.27;;
46897;SDS011;32646;50.958;6.258;2023-09-19T00:11:13;3.00;;;1.25;;
46897;SDS011;32646;50.958;6.258;2023-09-19T00:13:39;5.68;;;1.23;;
46897;SDS011;32646;50.958;6.258;2023-09-19T00:16:10;3.60;;;1.10;;
46897;SDS011;32646;50.958;6.258;2023-09-19T00:18:37;5.47;;;1.15;;
46897;SDS011;32646;50.958;6.258;2023-09-19T00:21:04;6.93;;;1.17;;
46897;SDS011;32646;50.958;6.258;2023-09-19T00:23:31;3.72;;;0.98;;
46897;SDS011;32646;50.958;6.258;2023-09-19T00:26:00;7.90;;;1.40;;
46897;SDS011;32646;50.958;6.258;2023-09-19T00:28:27;5.40;;;1.15;;
46897;SDS011;32646;50.958;6.258;2023-09-19T00:30:54;7.85;;;1.98;;
46897;SDS011;32646;50.958;6.258;2023-09-19T00:33:23;6.88;;;1.52;;
46897;SDS011;32646;50.958;6.258;2023-09-19T00:35:53;5.50;;;1.10;;
46897;SDS011;32646;50.958;6.258;2023-09-19T00:38:21;5.28;;;1.17;;
46897;SDS011;32646;50.958;6.258;2023-09-19T00:40:48;6.97;;;1.30;;
46897;SDS011;32646;50.958;6.258;2023-09-19T00:43:15;6.38;;;1.27;;
46897;SDS011;32646;50.958;6.258;2023-09-19T00:45:43;4.85;;;1.20;;
46897;SDS011;32646;50.958;6.258;2023-09-19T00:48:11;5.75;;;1.38;;
46897;SDS011;32646;50.958;6.258;2023-09-19T00:50:38;6.95;;;1.10;;
46897;SDS011;32646;50.958;6.258;2023-09-19T00:53:08;2.85;;;0.85;;
46897;SDS011;32646;50.958;6.258;2023-09-19T00:55:36;5.78;;;1.10;;
46897;SDS011;32646;50.958;6.258;2023-09-19T00:58:03;8.23;;;1.40;;
46897;SDS011;32646;50.958;6.258;2023-09-19T01:00:30;5.07;;;1.02;;
46897;SDS011;32646;50.958;6.258;2023-09-19T01:02:57;4.32;;;1.42;;
46897;SDS011;32646;50.958;6.258;2023-09-19T01:05:24;4.22;;;1.10;;
46897;SDS011;32646;50.958;6.258;2023-09-19T01:07:51;10.13;;;1.70;;
46897;SDS011;32646;50.958;6.258;2023-09-19T01:10:18;5.72;;;1.23;;
46897;SDS011;32646;50.958;6.258;2023-09-19T01:18:18;6.82;;;1.20;;
46897;SDS011;32646;50.958;6.258;2023-09-19T01:21:09;8.77;;;1.33;;
46897;SDS011;32646;50.958;6.258;2023-09-19T01:29:39;4.60;;;1.17;;
46897;SDS011;32646;50.958;6.258;2023-09-19T01:32:11;3.97;;;1.40;;
46897;SDS011;32646;50.958;6.258;2023-09-19T01:34:44;4.88;;;1.13;;
46897;SDS011;32646;50.958;6.258;2023-09-19T01:37:12;7.68;;;1.33;;
46897;SDS011;32646;50.958;6.258;2023-09-19T01:39:39;4.88;;;1.00;;
46897;SDS011;32646;50.958;6.258;2023-09-19T01:42:10;5.90;;;1.30;;
46897;SDS011;32646;50.958;6.258;2023-09-19T01:44:49;4.53;;;1.10;;
46897;SDS011;32646;50.958;6.258;2023-09-19T01:50:17;6.18;;;1.63;;
46897;SDS011;32646;50.958;6.258;2023-09-19T01:53:05;4.57;;;1.42;;
46897;SDS011;32646;50.958;6.258;2023-09-19T01:55:37;7.97;;;1.30;;
46897;SDS011;32646;50.958;6.258;2023-09-19T01:58:14;5.00;;;1.00;;
46897;SDS011;32646;50.958;6.258;2023-09-19T02:00:46;8.48;;;1.35;;
46897;SDS011;32646;50.958;6.258;2023-09-19T02:03:15;6.70;;;1.45;;
46897;SDS011;32646;50.958;6.258;2023-09-19T02:05:48;4.10;;;1.00;;
46897;SDS011;32646;50.958;6.258;2023-09-19T02:08:16;4.55;;;1.10;;
46897;SDS011;32646;50.958;6.258;2023-09-19T02:10:44;5.40;;;1.35;;
46897;SDS011;32646;50.958;6.258;2023-09-19T02:13:11;4.53;;;1.05;;
46897;SDS011;32646;50.958;6.258;2023-09-19T02:15:38;6.60;;;1.20;;
46897;SDS011;32646;50.958;6.258;2023-09-19T02:18:04;6.10;;;1.90;;
46897;SDS011;32646;50.958;6.258;2023-09-19T02:20:31;8.13;;;1.20;;
46897;SDS011;32646;50.958;6.258;2023-09-19T02:22:58;6.22;;;1.20;;
46897;SDS011;32646;50.958;6.258;2023-09-19T02:25:24;6.78;;;1.80;;
46897;SDS011;32646;50.958;6.258;2023-09-19T02:27:51;4.85;;;1.20;;
46897;SDS011;32646;50.958;6.258;2023-09-19T02:30:20;5.68;;;1.42;;
46897;SDS011;32646;50.958;6.258;2023-09-19T02:32:46;6.43;;;1.38;;
46897;SDS011;32646;50.958;6.258;2023-09-19T02:35:13;8.25;;;1.48;;
46897;SDS011;32646;50.958;6.258;2023-09-19T02:37:40;6.82;;;1.27;;
46897;SDS011;32646;50.958;6.258;2023-09-19T02:40:07;5.43;;;1.20;;
46897;SDS011;32646;50.958;6.258;2023-09-19T02:42:34;5.35;;;1.27;;
46897;SDS011;32646;50.958;6.258;2023-09-19T02:45:00;6.78;;;1.58;;
46897;SDS011;32646;50.958;6.258;2023-09-19T02:47:27;10.52;;;1.30;;
46897;SDS011;32646;50.958;6.258;2023-09-19T02:49:54;5.40;;;1.42;;
46897;SDS011;32646;50.958;6.258;2023-09-19T02:52:20;5.82;;;1.40;;
46897;SDS011;32646;50.958;6.258;2023-09-19T02:54:47;6.28;;;1.60;;
46897;SDS011;32646;50.958;6.258;2023-09-19T02:57:14;4.43;;;1.52;;
46897;SDS011;32646;50.958;6.258;2023-09-19T02:59:40;8.00;;;1.40;;
46897;SDS011;32646;50.958;6.258;2023-09-19T03:02:07;8.27;;;1.38;;
46897;SDS011;32646;50.958;6.258;2023-09-19T03:04:33;4.70;;;1.10;;
46897;SDS011;32646;50.958;6.258;2023-09-19T03:07:00;3.05;;;0.80;;
46897;SDS011;32646;50.958;6.258;2023-09-19T03:09:27;5.72;;;1.10;;
46897;SDS011;32646;50.958;6.258;2023-09-19T03:11:53;8.05;;;1.40;;
46897;SDS011;32646;50.958;6.258;2023-09-19T03:14:20;4.13;;;1.30;;
46897;SDS011;32646;50.958;6.258;2023-09-19T03:16:46;7.70;;;1.25;;
46897;SDS011;32646;50.958;6.258;2023-09-19T03:19:13;4.65;;;1.00;;
46897;SDS011;32646;50.958;6.258;2023-09-19T03:21:40;9.40;;;1.35;;
46897;SDS011;32646;50.958;6.258;2023-09-19T03:24:07;6.15;;;1.48;;
46897;SDS011;32646;50.958;6.258;2023-09-19T03:26:33;4.55;;;1.02;;
46897;SDS011;32646;50.958;6.258;2023-09-19T03:29:03;4.85;;;1.27;;
46897;SDS011;32646;50.958;6.258;2023-09-19T03:33:56;6.00;;;1.27;;
46897;SDS011;32646;50.958;6.258;2023-09-19T03:36:23;7.45;;;1.33;;
46897;SDS011;32646;50.958;6.258;2023-09-19T03:38:49;7.03;;;1.27;;
46897;SDS011;32646;50.958;6.258;2023-09-19T03:41:16;7.93;;;1.52;;
46897;SDS011;32646;50.958;6.258;2023-09-19T03:43:42;4.70;;;1.30;;
46897;SDS011;32646;50.958;6.258;2023-09-19T03:46:09;5.45;;;1.13;;
46897;SDS011;32646;50.958;6.258;2023-09-19T03:48:36;4.20;;;1.17;;
46897;SDS011;32646;50.958;6.258;2023-09-19T03:51:02;6.22;;;1.27;;
46897;SDS011;32646;50.958;6.258;2023-09-19T03:53:29;6.30;;;1.58;;
46897;SDS011;32646;50.958;6.258;2023-09-19T03:55:56;8.45;;;1.35;;
46897;SDS011;32646;50.958;6.258;2023-09-19T03:58:22;4.18;;;0.88;;
46897;SDS011;32646;50.958;6.258;2023-09-19T04:00:49;8.45;;;1.55;;
46897;SDS011;32646;50.958;6.258;2023-09-19T04:03:15;3.72;;;1.00;;
46897;SDS011;32646;50.958;6.258;2023-09-19T04:05:42;6.82;;;1.27;;
46897;SDS011;32646;50.958;6.258;2023-09-19T04:08:09;9.35;;;1.38;;
46897;SDS011;32646;50.958;6.258;2023-09-19T04:10:35;10.15;;;2.08;;
46897;SDS011;32646;50.958;6.258;2023-09-19T04:13:02;5.28;;;1.48;;
46897;SDS011;32646;50.958;6.258;2023-09-19T04:15:29;3.92;;;0.80;;
46897;SDS011;32646;50.958;6.258;2023-09-19T04:17:55;3.63;;;0.90;;
46897;SDS011;32646;50.958;6.258;2023-09-19T04:20:22;4.80;;;1.05;;
46897;SDS011;32646;50.958;6.258;2023-09-19T04:22:49;5.53;;;1.20;;
46897;SDS011;32646;50.958;6.258;2023-09-19T04:25:15;9.35;;;1.30;;
46897;SDS011;32646;50.958;6.258;2023-09-19T04:27:43;8.30;;;1.10;;
46897;SDS011;32646;50.958;6.258;2023-09-19T04:30:10;5.82;;;1.00;;
46897;SDS011;32646;50.958;6.258;2023-09-19T04:32:38;5.32;;;0.95;;
46897;SDS011;32646;50.958;6.258;2023-09-19T04:35:07;5.20;;;1.20;;
46897;SDS011;32646;50.958;6.258;2023-09-19T04:37:38;3.75;;;1.00;;
46897;SDS011;32646;50.958;6.258;2023-09-19T04:40:06;6.95;;;0.93;;
46897;SDS011;32646;50.958;6.258;2023-09-19T04:42:34;5.90;;;1.40;;
46897;SDS011;32646;50.958;6.258;2023-09-19T04:45:01;4.18;;;1.13;;
46897;SDS011;32646;50.958;6.258;2023-09-19T04:47:28;6.75;;;1.45;;
46897;SDS011;32646;50.958;6.258;2023-09-19T04:49:54;5.57;;;1.10;;
46897;SDS011;32646;50.958;6.258;2023-09-19T04:52:21;6.50;;;1.33;;
46897;SDS011;32646;50.958;6.258;2023-09-19T04:54:48;7.68;;;1.27;;
46897;SDS011;32646;50.958;6.258;2023-09-19T04:57:14;9.02;;;1.65;;
46897;SDS011;32646;50.958;6.258;2023-09-19T04:59:41;5.40;;;1.00;;
46897;SDS011;32646;50.958;6.258;2023-09-19T05:02:07;6.45;;;1.17;;
46897;SDS011;32646;50.958;6.258;2023-09-19T05:04:34;6.05;;;1.08;;
46897;SDS011;32646;50.958;6.258;2023-09-19T05:07:01;7.22;;;1.10;;
46897;SDS011;32646;50.958;6.258;2023-09-19T05:09:27;5.40;;;1.02;;
46897;SDS011;32646;50.958;6.258;2023-09-19T05:11:54;3.05;;;0.73;;
46897;SDS011;32646;50.958;6.258;2023-09-19T05:14:20;4.97;;;1.05;;
46897;SDS011;32646;50.958;6.258;2023-09-19T05:16:47;2.88;;;0.90;;
46897;SDS011;32646;50.958;6.258;2023-09-19T05:19:14;5.57;;;1.00;;
46897;SDS011;32646;50.958;6.258;2023-09-19T05:21:41;8.48;;;1.38;;
46897;SDS011;32646;50.958;6.258;2023-09-19T05:24:07;4.25;;;1.17;;
46897;SDS011;32646;50.958;6.258;2023-09-19T05:26:36;6.65;;;1.02;;
46897;SDS011;32646;50.958;6.258;2023-09-19T05:29:03;4.50;;;0.90;;
46897;SDS011;32646;50.958;6.258;2023-09-19T05:31:29;4.97;;;1.30;;
46897;SDS011;32646;50.958;6.258;2023-09-19T05:33:56;4.57;;;1.10;;
46897;SDS011;32646;50.958;6.258;2023-09-19T05:36:23;7.07;;;1.38;;
46897;SDS011;32646;50.958;6.258;2023-09-19T05:38:49;5.05;;;1.15;;
46897;SDS011;32646;50.958;6.258;2023-09-19T05:41:16;5.53;;;1.33;;
46897;SDS011;32646;50.958;6.258;2023-09-19T05:43:42;6.35;;;1.30;;
46897;SDS011;32646;50.958;6.258;2023-09-19T05:46:09;3.75;;;0.82;;
46897;SDS011;32646;50.958;6.258;2023-09-19T05:48:36;5.43;;;1.30;;
46897;SDS011;32646;50.958;6.258;2023-09-19T05:51:02;9.15;;;1.20;;
46897;SDS011;32646;50.958;6.258;2023-09-19T05:53:29;5.15;;;1.15;;
46897;SDS011;32646;50.958;6.258;2023-09-19T05:55:55;6.15;;;1.23;;
46897;SDS011;32646;50.958;6.258;2023-09-19T05:58:22;10.43;;;1.67;;
46897;SDS011;32646;50.958;6.258;2023-09-19T06:00:49;8.93;;;1.30;;
46897;SDS011;32646;50.958;6.258;2023-09-19T06:03:16;4.03;;;1.50;;
46897;SDS011;32646;50.958;6.258;2023-09-19T06:05:43;6.30;;;1.48;;
46897;SDS011;32646;50.958;6.258;2023-09-19T06:08:09;3.47;;;0.93;;
46897;SDS011;32646;50.958;6.258;2023-09-19T06:10:36;5.03;;;1.08;;
46897;SDS011;32646;50.958;6.258;2023-09-19T06:13:03;7.72;;;1.30;;
46897;SDS011;32646;50.958;6.258;2023-09-19T06:15:30;8.20;;;1.50;;
46897;SDS011;32646;50.958;6.258;2023-09-19T06:17:56;4.82;;;1.67;;
46897;SDS011;32646;50.958;6.258;2023-09-19T06:20:23;5.95;;;1.17;;
46897;SDS011;32646;50.958;6.258;2023-09-19T06:22:50;6.35;;;1.48;;
46897;SDS011;32646;50.958;6.258;2023-09-19T06:25:21;3.10;;;0.90;;
46897;SDS011;32646;50.958;6.258;2023-09-19T06:30:15;6.78;;;1.30;;
46897;SDS011;32646;50.958;6.258;2023-09-19T06:32:47;8.18;;;1.30;;
46897;SDS011;32646;50.958;6.258;2023-09-19T06:35:17;5.50;;;1.15;;
46897;SDS011;32646;50.958;6.258;2023-09-19T06:37:45;4.70;;;0.98;;
46897;SDS011;32646;50.958;6.258;2023-09-19T06:40:12;7.70;;;1.42;;
46897;SDS011;32646;50.958;6.258;2023-09-19T06:43:12;10.43;;;1.58;;
46897;SDS011;32646;50.958;6.258;2023-09-19T06:45:32;11.77;;;1.55;;
46897;SDS011;32646;50.958;6.258;2023-09-19T06:47:58;5.15;;;1.38;;
46897;SDS011;32646;50.958;6.258;2023-09-19T06:50:25;6.85;;;1.40;;
46897;SDS011;32646;50.958;6.258;2023-09-19T06:52:53;5.30;;;1.27;;
46897;SDS011;32646;50.958;6.258;2023-09-19T06:55:32;5.70;;;1.33;;
46897;SDS011;32646;50.958;6.258;2023-09-19T06:57:59;4.90;;;1.38;;
46897;SDS011;32646;50.958;6.258;2023-09-19T07:00:26;4.63;;;1.17;;
46897;SDS011;32646;50.958;6.258;2023-09-19T07:05:22;4.22;;;0.80;;
46897;SDS011;32646;50.958;6.258;2023-09-19T07:07:49;4.43;;;1.25;;
46897;SDS011;32646;50.958;6.258;2023-09-19T07:10:16;8.88;;;1.17;;
46897;SDS011;32646;50.958;6.258;2023-09-19T07:12:43;4.25;;;1.15;;
46897;SDS011;32646;50.958;6.258;2023-09-19T07:15:09;3.88;;;1.15;;
46897;SDS011;32646;50.958;6.258;2023-09-19T07:17:36;3.70;;;1.20;;
46897;SDS011;32646;50.958;6.258;2023-09-19T07:20:03;4.75;;;2.13;;
46897;SDS011;32646;50.958;6.258;2023-09-19T07:22:30;5.60;;;1.40;;
46897;SDS011;32646;50.958;6.258;2023-09-19T07:25:04;6.97;;;1.25;;
46897;SDS011;32646;50.958;6.258;2023-09-19T07:27:31;6.43;;;1.10;;
46897;SDS011;32646;50.958;6.258;2023-09-19T07:29:58;3.35;;;0.90;;
46897;SDS011;32646;50.958;6.258;2023-09-19T07:32:25;6.78;;;1.35;;
46897;SDS011;32646;50.958;6.258;2023-09-19T07:34:51;6.60;;;1.50;;
46897;SDS011;32646;50.958;6.258;2023-09-19T07:37:28;5.18;;;1.10;;
46897;SDS011;32646;50.958;6.258;2023-09-19T07:39:55;6.15;;;1.40;;
46897;SDS011;32646;50.958;6.258;2023-09-19T07:42:22;8.20;;;1.25;;
46897;SDS011;32646;50.958;6.258;2023-09-19T07:44:49;8.68;;;1.60;;
46897;SDS011;32646;50.958;6.258;2023-09-19T07:47:21;6.57;;;1.20;;
46897;SDS011;32646;50.958;6.258;2023-09-19T07:49:48;4.93;;;1.00;;
46897;SDS011;32646;50.958;6.258;2023-09-19T07:52:15;5.57;;;1.48;;
46897;SDS011;32646;50.958;6.258;2023-09-19T07:54:44;7.13;;;1.42;;
46897;SDS011;32646;50.958;6.258;2023-09-19T07:57:10;3.20;;;1.02;;
46897;SDS011;32646;50.958;6.258;2023-09-19T07:59:37;5.82;;;1.30;;
46897;SDS011;32646;50.958;6.258;2023-09-19T08:02:04;5.43;;;1.02;;
46897;SDS011;32646;50.958;6.258;2023-09-19T08:04:33;5.30;;;1.15;;
46897;SDS011;32646;50.958;6.258;2023-09-19T08:07:00;4.80;;;0.63;;
46897;SDS011;32646;50.958;6.258;2023-09-19T08:09:26;6.10;;;1.00;;
46897;SDS011;32646;50.958;6.258;2023-09-19T08:11:53;5.32;;;1.00;;
46897;SDS011;32646;50.958;6.258;2023-09-19T08:14:20;4.43;;;0.80;;
46897;SDS011;32646;50.958;6.258;2023-09-19T08:16:46;6.15;;;1.20;;
46897;SDS011;32646;50.958;6.258;2023-09-19T08:19:13;4.82;;;1.17;;
46897;SDS011;32646;50.958;6.258;2023-09-19T08:21:46;5.43;;;1.10;;
46897;SDS011;32646;50.958;6.258;2023-09-19T08:24:13;7.03;;;0.95;;
46897;SDS011;32646;50.958;6.258;2023-09-19T08:26:40;5.30;;;1.40;;
46897;SDS011;32646;50.958;6.258;2023-09-19T08:29:06;5.60;;;1.13;;
46897;SDS011;32646;50.958;6.258;2023-09-19T08:31:33;7.10;;;1.08;;
46897;SDS011;32646;50.958;6.258;2023-09-19T08:34:00;6.25;;;1.40;;
46897;SDS011;32646;50.958;6.258;2023-09-19T08:36:27;5.22;;;1.13;;
46897;SDS011;32646;50.958;6.258;2023-09-19T08:38:54;7.05;;;1.23;;
46897;SDS011;32646;50.958;6.258;2023-09-19T08:41:26;4.43;;;1.00;;
46897;SDS011;32646;50.958;6.258;2023-09-19T08:43:52;4.95;;;1.00;;
46897;SDS011;32646;50.958;6.258;2023-09-19T08:46:20;7.47;;;1.30;;
46897;SDS011;32646;50.958;6.258;2023-09-19T08:49:03;5.40;;;1.42;;
46897;SDS011;32646;50.958;6.258;2023-09-19T08:51:33;5.40;;;1.00;;
46897;SDS011;32646;50.958;6.258;2023-09-19T08:54:08;4.85;;;1.15;;
46897;SDS011;32646;50.958;6.258;2023-09-19T08:56:36;3.70;;;1.00;;
46897;SDS011;32646;50.958;6.258;2023-09-19T08:59:05;4.97;;;1.00;;
46897;SDS011;32646;50.958;6.258;2023-09-19T09:01:35;10.77;;;1.30;;
46897;SDS011;32646;50.958;6.258;2023-09-19T09:04:04;6.60;;;1.20;;
46897;SDS011;32646;50.958;6.258;2023-09-19T09:06:35;5.53;;;1.02;;
46897;SDS011;32646;50.958;6.258;2023-09-19T09:09:02;7.05;;;1.10;;
46897;SDS011;32646;50.958;6.258;2023-09-19T09:11:29;5.93;;;1.00;;
46897;SDS011;32646;50.958;6.258;2023-09-19T09:13:59;3.75;;;1.00;;
46897;SDS011;32646;50.958;6.258;2023-09-19T09:16:26;4.97;;;0.98;;
46897;SDS011;32646;50.958;6.258;2023-09-19T09:18:53;6.05;;;1.10;;
46897;SDS011;32646;50.958;6.258;2023-09-19T09:21:20;4.72;;;1.10;;
46897;SDS011;32646;50.958;6.258;2023-09-19T09:23:48;7.90;;;1.00;;
46897;SDS011;32646;50.958;6.258;2023-09-19T09:26:15;4.57;;;1.30;;
46897;SDS011;32646;50.958;6.258;2023-09-19T09:28:45;3.45;;;0.80;;
46897;SDS011;32646;50.958;6.258;2023-09-19T09:31:22;4.60;;;1.20;;
46897;SDS011;32646;50.958;6.258;2023-09-19T09:33:54;5.38;;;1.17;;
46897;SDS011;32646;50.958;6.258;2023-09-19T09:36:37;7.15;;;1.17;;
46897;SDS011;32646;50.958;6.258;2023-09-19T09:39:05;4.90;;;1.10;;
46897;SDS011;32646;50.958;6.258;2023-09-19T09:41:37;5.05;;;1.33;;
46897;SDS011;32646;50.958;6.258;2023-09-19T09:44:13;5.70;;;1.10;;
46897;SDS011;32646;50.958;6.258;2023-09-19T09:46:42;8.43;;;1.52;;
46897;SDS011;32646;50.958;6.258;2023-09-19T09:49:10;6.65;;;1.15;;
46897;SDS011;32646;50.958;6.258;2023-09-19T09:51:36;5.72;;;1.10;;
46897;SDS011;32646;50.958;6.258;2023-09-19T09:54:11;8.18;;;1.42;;
46897;SDS011;32646;50.958;6.258;2023-09-19T10:02:17;6.78;;;1.52;;
46897;SDS011;32646;50.958;6.258;2023-09-19T10:04:45;6.18;;;1.00;;
46897;SDS011;32646;50.958;6.258;2023-09-19T10:07:31;7.72;;;1.25;;
46897;SDS011;32646;50.958;6.258;2023-09-19T10:09:59;6.05;;;1.08;;
46897;SDS011;32646;50.958;6.258;2023-09-19T10:12:28;8.55;;;1.42;;
46897;SDS011;32646;50.958;6.258;2023-09-19T10:14:58;5.82;;;1.10;;
46897;SDS011;32646;50.958;6.258;2023-09-19T10:17:29;6.78;;;1.27;;
46897;SDS011;32646;50.958;6.258;2023-09-19T10:19:57;5.07;;;1.10;;
46897;SDS011;32646;50.958;6.258;2023-09-19T10:22:24;4.43;;;1.20;;
46897;SDS011;32646;50.958;6.258;2023-09-19T10:24:55;4.18;;;1.10;;
46897;SDS011;32646;50.958;6.258;2023-09-19T10:27:41;4.07;;;1.10;;
46897;SDS011;32646;50.958;6.258;2023-09-19T10:30:08;3.80;;;0.90;;
46897;SDS011;32646;50.958;6.258;2023-09-19T10:32:36;4.43;;;0.93;;
46897;SDS011;32646;50.958;6.258;2023-09-19T10:35:08;4.40;;;1.20;;
46897;SDS011;32646;50.958;6.258;2023-09-19T10:37:39;4.47;;;1.10;;
46897;SDS011;32646;50.958;6.258;2023-09-19T10:40:11;6.43;;;1.10;;
46897;SDS011;32646;50.958;6.258;2023-09-19T10:42:40;6.38;;;1.40;;
46897;SDS011;32646;50.958;6.258;2023-09-19T10:45:10;4.45;;;1.17;;
46897;SDS011;32646;50.958;6.258;2023-09-19T10:47:38;2.75;;;0.75;;
46897;SDS011;32646;50.958;6.258;2023-09-19T10:50:06;5.97;;;1.08;;
46897;SDS011;32646;50.958;6.258;2023-09-19T10:52:33;6.10;;;1.15;;
46897;SDS011;32646;50.958;6.258;2023-09-19T10:55:05;4.65;;;1.20;;
46897;SDS011;32646;50.958;6.258;2023-09-19T10:57:34;5.47;;;1.10;;
46897;SDS011;32646;50.958;6.258;2023-09-19T11:02:34;3.53;;;0.88;;
46897;SDS011;32646;50.958;6.258;2023-09-19T11:05:10;6.55;;;1.08;;
46897;SDS011;32646;50.958;6.258;2023-09-19T11:07:56;6.95;;;1.60;;
46897;SDS011;32646;50.958;6.258;2023-09-19T11:21:38;3.88;;;0.98;;
46897;SDS011;32646;50.958;6.258;2023-09-19T11:26:44;7.22;;;1.20;;
46897;SDS011;32646;50.958;6.258;2023-09-19T11:29:27;5.57;;;1.15;;
46897;SDS011;32646;50.958;6.258;2023-09-19T11:31:57;3.75;;;1.02;;
46897;SDS011;32646;50.958;6.258;2023-09-19T11:37:59;3.97;;;0.90;;
46897;SDS011;32646;50.958;6.258;2023-09-19T11:40:05;4.75;;;1.00;;
46897;SDS011;32646;50.958;6.258;2023-09-19T11:42:45;5.43;;;1.17;;
46897;SDS011;32646;50.958;6.258;2023-09-19T11:48:07;4.55;;;1.15;;
46897;SDS011;32646;50.958;6.258;2023-09-19T11:50:35;3.60;;;0.80;;
46897;SDS011;32646;50.958;6.258;2023-09-19T11:53:02;7.90;;;1.20;;
46897;SDS011;32646;50.958;6.258;2023-09-19T11:55:29;4.97;;;1.17;;
46897;SDS011;32646;50.958;6.258;2023-09-19T11:57:57;4.07;;;1.02;;
46897;SDS011;32646;50.958;6.258;2023-09-19T12:00:24;2.58;;;0.90;;
46897;SDS011;32646;50.958;6.258;2023-09-19T12:02:51;5.53;;;1.20;;
46897;SDS011;32646;50.958;6.258;2023-09-19T12:05:28;6.15;;;1.45;;
46897;SDS011;32646;50.958;6.258;2023-09-19T12:07:58;3.50;;;1.00;;
46897;SDS011;32646;50.958;6.258;2023-09-19T12:10:25;7.40;;;1.42;;
46897;SDS011;32646;50.958;6.258;2023-09-19T12:12:56;6.18;;;0.88;;
46897;SDS011;32646;50.958;6.258;2023-09-19T12:15:23;4.20;;;1.27;;
46897;SDS011;32646;50.958;6.258;2023-09-19T12:17:50;4.10;;;0.90;;
46897;SDS011;32646;50.958;6.258;2023-09-19T12:20:18;4.72;;;0.90;;
46897;SDS011;32646;50.958;6.258;2023-09-19T12:22:46;2.30;;;0.60;;
46897;SDS011;32646;50.958;6.258;2023-09-19T12:25:13;4.00;;;0.85;;
46897;SDS011;32646;50.958;6.258;2023-09-19T12:27:43;3.35;;;1.00;;
46897;SDS011;32646;50.958;6.258;2023-09-19T12:30:14;3.13;;;0.75;;
46897;SDS011;32646;50.958;6.258;2023-09-19T12:32:52;5.25;;;0.90;;
46897;SDS011;32646;50.958;6.258;2023-09-19T12:35:29;2.15;;;0.70;;
46897;SDS011;32646;50.958;6.258;2023-09-19T12:37:56;3.00;;;0.82;;
46897;SDS011;32646;50.958;6.258;2023-09-19T12:40:23;3.58;;;0.80;;
46897;SDS011;32646;50.958;6.258;2023-09-19T12:42:56;5.38;;;1.13;;
46897;SDS011;32646;50.958;6.258;2023-09-19T12:45:23;5.20;;;1.00;;
46897;SDS011;32646;50.958;6.258;2023-09-19T12:51:01;3.83;;;0.65;;
46897;SDS011;32646;50.958;6.258;2023-09-19T12:53:31;3.05;;;0.80;;
46897;SDS011;32646;50.958;6.258;2023-09-19T12:56:02;3.72;;;0.70;;
46897;SDS011;32646;50.958;6.258;2023-09-19T12:58:29;3.38;;;0.80;;
46897;SDS011;32646;50.958;6.258;2023-09-19T13:00:57;2.55;;;0.70;;
46897;SDS011;32646;50.958;6.258;2023-09-19T13:05:59;3.20;;;0.60;;
46897;SDS011;32646;50.958;6.258;2023-09-19T13:11:35;2.17;;;0.57;;
46897;SDS011;32646;50.958;6.258;2023-09-19T13:13:50;4.70;;;0.77;;
46897;SDS011;32646;50.958;6.258;2023-09-19T13:19:45;3.00;;;0.75;;
46897;SDS011;32646;50.958;6.258;2023-09-19T13:25:15;1.42;;;0.40;;
46897;SDS011;32646;50.958;6.258;2023-09-19T13:27:43;3.58;;;0.70;;
46897;SDS011;32646;50.958;6.258;2023-09-19T13:30:13;1.30;;;0.55;;
46897;SDS011;32646;50.958;6.258;2023-09-19T13:32:41;2.67;;;1.20;;
46897;SDS011;32646;50.958;6.258;2023-09-19T13:35:07;2.92;;;0.65;;
46897;SDS011;32646;50.958;6.258;2023-09-19T13:37:35;3.97;;;0.95;;
46897;SDS011;32646;50.958;6.258;2023-09-19T13:40:02;2.80;;;0.70;;
46897;SDS011;32646;50.958;6.258;2023-09-19T13:42:29;2.63;;;0.43;;
46897;SDS011;32646;50.958;6.258;2023-09-19T13:44:56;1.77;;;0.52;;
46897;SDS011;32646;50.958;6.258;2023-09-19T13:47:22;3.10;;;0.77;;
46897;SDS011;32646;50.958;6.258;2023-09-19T13:49:49;3.45;;;0.55;;
46897;SDS011;32646;50.958;6.258;2023-09-19T13:52:16;4.00;;;0.75;;
46897;SDS011;32646;50.958;6.258;2023-09-19T13:54:42;1.70;;;0.50;;
46897;SDS011;32646;50.958;6.258;2023-09-19T13:57:09;3.15;;;0.50;;
46897;SDS011;32646;50.958;6.258;2023-09-19T13:59:36;2.78;;;0.50;;
46897;SDS011;32646;50.958;6.258;2023-09-19T14:02:03;5.63;;;0.95;;
46897;SDS011;32646;50.958;6.258;2023-09-19T14:04:29;3.25;;;0.80;;
46897;SDS011;32646;50.958;6.258;2023-09-19T14:06:56;2.53;;;0.47;;
46897;SDS011;32646;50.958;6.258;2023-09-19T14:09:23;1.98;;;0.55;;
46897;SDS011;32646;50.958;6.258;2023-09-19T14:11:50;3.72;;;0.65;;
46897;SDS011;32646;50.958;6.258;2023-09-19T14:14:17;2.45;;;0.47;;
46897;SDS011;32646;50.958;6.258;2023-09-19T14:16:43;2.63;;;0.60;;
46897;SDS011;32646;50.958;6.258;2023-09-19T14:19:10;2.85;;;0.55;;
46897;SDS011;32646;50.958;6.258;2023-09-19T14:21:37;3.17;;;0.50;;
46897;SDS011;32646;50.958;6.258;2023-09-19T14:24:05;3.38;;;0.50;;
46897;SDS011;32646;50.958;6.258;2023-09-19T14:26:32;3.05;;;0.88;;
46897;SDS011;32646;50.958;6.258;2023-09-19T14:28:59;4.07;;;0.50;;
46897;SDS011;32646;50.958;6.258;2023-09-19T14:31:26;2.65;;;0.50;;
46897;SDS011;32646;50.958;6.258;2023-09-19T14:33:53;1.52;;;0.50;;
46897;SDS011;32646;50.958;6.258;2023-09-19T14:36:25;2.08;;;0.60;;
46897;SDS011;32646;50.958;6.258;2023-09-19T14:38:52;1.27;;;0.40;;
46897;SDS011;32646;50.958;6.258;2023-09-19T14:41:19;1.23;;;0.50;;
46897;SDS011;32646;50.958;6.258;2023-09-19T14:43:46;2.53;;;0.55;;
46897;SDS011;32646;50.958;6.258;2023-09-19T14:46:13;2.42;;;0.70;;
46897;SDS011;32646;50.958;6.258;2023-09-19T14:48:40;2.67;;;0.50;;
46897;SDS011;32646;50.958;6.258;2023-09-19T14:51:07;1.90;;;0.70;;
46897;SDS011;32646;50.958;6.258;2023-09-19T14:53:34;4.10;;;0.60;;
46897;SDS011;32646;50.958;6.258;2023-09-19T14:56:01;2.90;;;0.60;;
46897;SDS011;32646;50.958;6.258;2023-09-19T14:58:29;3.58;;;0.60;;
46897;SDS011;32646;50.958;6.258;2023-09-19T15:01:06;2.33;;;0.55;;
46897;SDS011;32646;50.958;6.258;2023-09-19T15:03:34;2.90;;;0.40;;
46897;SDS011;32646;50.958;6.258;2023-09-19T15:06:02;2.85;;;0.70;;
46897;SDS011;32646;50.958;6.258;2023-09-19T15:08:31;2.17;;;0.60;;
46897;SDS011;32646;50.958;6.258;2023-09-19T15:10:58;3.05;;;0.82;;
46897;SDS011;32646;50.958;6.258;2023-09-19T15:13:25;2.17;;;0.40;;
46897;SDS011;32646;50.958;6.258;2023-09-19T15:15:51;2.53;;;0.50;;
46897;SDS011;32646;50.958;6.258;2023-09-19T15:18:18;1.52;;;0.50;;
46897;SDS011;32646;50.958;6.258;2023-09-19T15:20:45;4.70;;;0.75;;
46897;SDS011;32646;50.958;6.258;2023-09-19T15:23:11;2.30;;;0.50;;
46897;SDS011;32646;50.958;6.258;2023-09-19T15:25:38;1.63;;;0.52;;
46897;SDS011;32646;50.958;6.258;2023-09-19T15:28:05;1.67;;;0.50;;
46897;SDS011;32646;50.958;6.258;2023-09-19T15:30:31;2.45;;;0.50;;
46897;SDS011;32646;50.958;6.258;2023-09-19T15:32:58;1.58;;;0.57;;
46897;SDS011;32646;50.958;6.258;2023-09-19T15:35:25;2.92;;;0.95;;
46897;SDS011;32646;50.958;6.258;2023-09-19T15:37:51;3.15;;;0.80;;
46897;SDS011;32646;50.958;6.258;2023-09-19T15:40:18;3.28;;;0.82;;
46897;SDS011;32646;50.958;6.258;2023-09-19T15:42:44;2.80;;;0.50;;
46897;SDS011;32646;50.958;6.258;2023-09-19T15:45:11;2.90;;;0.70;;
46897;SDS011;32646;50.958;6.258;2023-09-19T15:47:38;2.35;;;0.52;;
46897;SDS011;32646;50.958;6.258;2023-09-19T15:50:04;2.60;;;0.55;;
46897;SDS011;32646;50.958;6.258;2023-09-19T15:52:31;3.22;;;0.80;;
46897;SDS011;32646;50.958;6.258;2023-09-19T15:54:58;6.50;;;0.73;;
46897;SDS011;32646;50.958;6.258;2023-09-19T15:57:25;2.33;;;0.68;;
46897;SDS011;32646;50.958;6.258;2023-09-19T15:59:52;1.50;;;0.40;;